sensor_id;sensor_type;location;lat;lon;timestamp;P1;durP1;ratioP1;P2;durP2;ratioP2
54993;SDS011;40891;47.242;8.648;2022-12-16T00:00:07;20.13;;;9.87;;
54993;SDS011;40891;47.242;8.648;2022-12-16T00:02:34;24.13;;;9.90;;
54993;SDS011;40891;47.242;8.648;2022-12-16T00:04:59;25.93;;;12.13;;
54993;SDS011;40891;47.242;8.648;2022-12-16T00:07:25;22.43;;;10.63;;
54993;SDS011;40891;47.242;8.648;2022-12-16T00:09:50;22.77;;;11.10;;
54993;SDS011;40891;47.242;8.648;2022-12-16T00:12:15;23.73;;;11.23;;
54993;SDS011;40891;47.242;8.648;2022-12-16T00:14:41;22.33;;;11.07;;
54993;SDS011;40891;47.242;8.648;2022-12-16T00:17:06;17.83;;;9.80;;
54993;SDS011;40891;47.242;8.648;2022-12-16T00:19:32;21.40;;;10.17;;
54993;SDS011;40891;47.242;8.648;2022-12-16T00:21:57;21.37;;;11.10;;
54993;SDS011;40891;47.242;8.648;2022-12-16T00:24:22;22.93;;;10.90;;
54993;SDS011;40891;47.242;8.648;2022-12-16T00:26:48;18.63;;;10.33;;
54993;SDS011;40891;47.242;8.648;2022-12-16T00:29:13;25.20;;;11.57;;
54993;SDS011;40891;47.242;8.648;2022-12-16T00:31:38;23.23;;;10.90;;
54993;SDS011;40891;47.242;8.648;2022-12-16T00:34:04;22.63;;;11.23;;
54993;SDS011;40891;47.242;8.648;2022-12-16T00:36:29;24.40;;;10.77;;
54993;SDS011;40891;47.242;8.648;2022-12-16T00:38:55;23.20;;;11.47;;
54993;SDS011;40891;47.242;8.648;2022-12-16T00:41:20;24.33;;;11.60;;
54993;SDS011;40891;47.242;8.648;2022-12-16T00:43:46;22.37;;;9.83;;
54993;SDS011;40891;47.242;8.648;2022-12-16T00:46:11;24.50;;;11.10;;
54993;SDS011;40891;47.242;8.648;2022-12-16T00:48:37;31.63;;;11.57;;
54993;SDS011;40891;47.242;8.648;2022-12-16T00:51:02;24.97;;;11.13;;
54993;SDS011;40891;47.242;8.648;2022-12-16T00:53:27;23.43;;;10.90;;
54993;SDS011;40891;47.242;8.648;2022-12-16T00:56:06;24.83;;;11.27;;
54993;SDS011;40891;47.242;8.648;2022-12-16T00:58:33;24.93;;;11.07;;
54993;SDS011;40891;47.242;8.648;2022-12-16T01:00:58;25.90;;;12.20;;
54993;SDS011;40891;47.242;8.648;2022-12-16T01:03:24;23.83;;;11.20;;
54993;SDS011;40891;47.242;8.648;2022-12-16T01:05:50;21.50;;;10.80;;
54993;SDS011;40891;47.242;8.648;2022-12-16T01:08:15;24.07;;;11.47;;
54993;SDS011;40891;47.242;8.648;2022-12-16T01:10:41;24.83;;;10.90;;
54993;SDS011;40891;47.242;8.648;2022-12-16T01:13:06;28.47;;;12.13;;
54993;SDS011;40891;47.242;8.648;2022-12-16T01:15:31;28.03;;;12.13;;
54993;SDS011;40891;47.242;8.648;2022-12-16T01:17:57;30.67;;;12.90;;
54993;SDS011;40891;47.242;8.648;2022-12-16T01:20:22;29.63;;;12.83;;
54993;SDS011;40891;47.242;8.648;2022-12-16T01:22:48;26.43;;;12.50;;
54993;SDS011;40891;47.242;8.648;2022-12-16T01:25:13;35.77;;;14.23;;
54993;SDS011;40891;47.242;8.648;2022-12-16T01:27:39;29.63;;;12.53;;
54993;SDS011;40891;47.242;8.648;2022-12-16T01:30:05;32.00;;;12.57;;
54993;SDS011;40891;47.242;8.648;2022-12-16T01:32:31;31.17;;;14.20;;
54993;SDS011;40891;47.242;8.648;2022-12-16T01:34:56;25.40;;;11.60;;
54993;SDS011;40891;47.242;8.648;2022-12-16T01:37:22;27.93;;;12.87;;
54993;SDS011;40891;47.242;8.648;2022-12-16T01:39:48;27.07;;;13.70;;
54993;SDS011;40891;47.242;8.648;2022-12-16T01:42:18;28.83;;;13.23;;
54993;SDS011;40891;47.242;8.648;2022-12-16T01:44:45;25.13;;;11.87;;
54993;SDS011;40891;47.242;8.648;2022-12-16T01:47:16;22.87;;;10.47;;
54993;SDS011;40891;47.242;8.648;2022-12-16T01:52:27;23.57;;;11.97;;
54993;SDS011;40891;47.242;8.648;2022-12-16T01:54:57;25.37;;;11.93;;
54993;SDS011;40891;47.242;8.648;2022-12-16T01:57:28;25.17;;;11.87;;
54993;SDS011;40891;47.242;8.648;2022-12-16T02:00:00;25.87;;;11.33;;
54993;SDS011;40891;47.242;8.648;2022-12-16T02:02:28;22.03;;;10.87;;
54993;SDS011;40891;47.242;8.648;2022-12-16T02:04:56;22.37;;;11.73;;
54993;SDS011;40891;47.242;8.648;2022-12-16T02:07:40;23.87;;;10.83;;
54993;SDS011;40891;47.242;8.648;2022-12-16T02:10:05;24.77;;;11.77;;
54993;SDS011;40891;47.242;8.648;2022-12-16T02:18:16;20.63;;;10.07;;
54993;SDS011;40891;47.242;8.648;2022-12-16T02:20:59;23.10;;;10.40;;
54993;SDS011;40891;47.242;8.648;2022-12-16T02:34:55;21.73;;;9.90;;
54993;SDS011;40891;47.242;8.648;2022-12-16T02:38:09;21.77;;;9.83;;
54993;SDS011;40891;47.242;8.648;2022-12-16T02:41:25;21.73;;;10.20;;
54993;SDS011;40891;47.242;8.648;2022-12-16T02:46:14;16.90;;;9.60;;
54993;SDS011;40891;47.242;8.648;2022-12-16T02:48:41;19.83;;;8.97;;
54993;SDS011;40891;47.242;8.648;2022-12-16T02:51:06;17.07;;;9.10;;
54993;SDS011;40891;47.242;8.648;2022-12-16T02:53:33;19.77;;;9.73;;
54993;SDS011;40891;47.242;8.648;2022-12-16T03:01:17;20.17;;;9.60;;
54993;SDS011;40891;47.242;8.648;2022-12-16T03:04:03;16.27;;;9.50;;
54993;SDS011;40891;47.242;8.648;2022-12-16T03:06:37;18.33;;;9.40;;
54993;SDS011;40891;47.242;8.648;2022-12-16T03:09:08;19.00;;;9.73;;
54993;SDS011;40891;47.242;8.648;2022-12-16T03:11:36;17.70;;;9.17;;
54993;SDS011;40891;47.242;8.648;2022-12-16T03:14:05;21.53;;;10.00;;
54993;SDS011;40891;47.242;8.648;2022-12-16T03:16:33;19.50;;;9.77;;
54993;SDS011;40891;47.242;8.648;2022-12-16T03:19:00;19.50;;;9.80;;
54993;SDS011;40891;47.242;8.648;2022-12-16T03:21:29;21.00;;;9.97;;
54993;SDS011;40891;47.242;8.648;2022-12-16T03:24:01;18.93;;;9.90;;
54993;SDS011;40891;47.242;8.648;2022-12-16T03:26:35;18.27;;;9.33;;
54993;SDS011;40891;47.242;8.648;2022-12-16T03:29:15;21.60;;;9.80;;
54993;SDS011;40891;47.242;8.648;2022-12-16T03:31:50;20.30;;;10.07;;
54993;SDS011;40891;47.242;8.648;2022-12-16T03:37:37;16.23;;;8.70;;
54993;SDS011;40891;47.242;8.648;2022-12-16T03:40:04;19.57;;;9.37;;
54993;SDS011;40891;47.242;8.648;2022-12-16T03:42:34;17.50;;;10.07;;
54993;SDS011;40891;47.242;8.648;2022-12-16T03:45:01;21.23;;;9.27;;
54993;SDS011;40891;47.242;8.648;2022-12-16T03:47:27;16.13;;;8.53;;
54993;SDS011;40891;47.242;8.648;2022-12-16T03:49:53;18.10;;;9.77;;
54993;SDS011;40891;47.242;8.648;2022-12-16T03:52:19;15.80;;;9.10;;
54993;SDS011;40891;47.242;8.648;2022-12-16T03:54:44;18.47;;;9.83;;
54993;SDS011;40891;47.242;8.648;2022-12-16T03:57:09;22.40;;;10.13;;
54993;SDS011;40891;47.242;8.648;2022-12-16T03:59:35;19.17;;;9.33;;
54993;SDS011;40891;47.242;8.648;2022-12-16T04:02:00;16.63;;;9.37;;
54993;SDS011;40891;47.242;8.648;2022-12-16T04:04:26;16.00;;;9.40;;
54993;SDS011;40891;47.242;8.648;2022-12-16T04:06:51;19.50;;;9.30;;
54993;SDS011;40891;47.242;8.648;2022-12-16T04:09:36;19.50;;;9.70;;
54993;SDS011;40891;47.242;8.648;2022-12-16T04:12:02;16.20;;;9.00;;
54993;SDS011;40891;47.242;8.648;2022-12-16T04:14:45;18.10;;;10.13;;
54993;SDS011;40891;47.242;8.648;2022-12-16T04:17:29;18.37;;;9.53;;
54993;SDS011;40891;47.242;8.648;2022-12-16T04:20:14;20.70;;;9.67;;
54993;SDS011;40891;47.242;8.648;2022-12-16T04:22:59;20.77;;;10.50;;
54993;SDS011;40891;47.242;8.648;2022-12-16T04:25:43;20.37;;;10.30;;
54993;SDS011;40891;47.242;8.648;2022-12-16T04:28:09;23.70;;;10.73;;
54993;SDS011;40891;47.242;8.648;2022-12-16T04:30:34;20.67;;;11.00;;
54993;SDS011;40891;47.242;8.648;2022-12-16T04:33:00;22.50;;;10.60;;
54993;SDS011;40891;47.242;8.648;2022-12-16T04:35:47;19.70;;;10.87;;
54993;SDS011;40891;47.242;8.648;2022-12-16T04:38:31;23.50;;;11.33;;
54993;SDS011;40891;47.242;8.648;2022-12-16T04:41:16;21.87;;;10.87;;
54993;SDS011;40891;47.242;8.648;2022-12-16T04:44:00;23.13;;;11.63;;
54993;SDS011;40891;47.242;8.648;2022-12-16T04:46:44;19.13;;;10.53;;
54993;SDS011;40891;47.242;8.648;2022-12-16T04:49:28;20.13;;;10.50;;
54993;SDS011;40891;47.242;8.648;2022-12-16T04:52:12;23.17;;;10.80;;
54993;SDS011;40891;47.242;8.648;2022-12-16T04:54:57;20.73;;;9.70;;
54993;SDS011;40891;47.242;8.648;2022-12-16T04:57:43;22.10;;;10.63;;
54993;SDS011;40891;47.242;8.648;2022-12-16T05:00:29;19.93;;;10.67;;
54993;SDS011;40891;47.242;8.648;2022-12-16T05:03:13;21.00;;;10.67;;
54993;SDS011;40891;47.242;8.648;2022-12-16T05:05:57;24.87;;;12.40;;
54993;SDS011;40891;47.242;8.648;2022-12-16T05:08:41;23.63;;;10.97;;
54993;SDS011;40891;47.242;8.648;2022-12-16T05:11:25;21.13;;;10.90;;
54993;SDS011;40891;47.242;8.648;2022-12-16T05:14:09;22.13;;;11.57;;
54993;SDS011;40891;47.242;8.648;2022-12-16T05:16:53;21.93;;;10.67;;
54993;SDS011;40891;47.242;8.648;2022-12-16T05:19:37;20.83;;;11.47;;
54993;SDS011;40891;47.242;8.648;2022-12-16T05:22:21;20.77;;;11.10;;
54993;SDS011;40891;47.242;8.648;2022-12-16T05:25:06;20.67;;;10.70;;
54993;SDS011;40891;47.242;8.648;2022-12-16T05:27:51;20.80;;;10.70;;
54993;SDS011;40891;47.242;8.648;2022-12-16T05:30:35;22.60;;;10.77;;
54993;SDS011;40891;47.242;8.648;2022-12-16T05:33:20;23.87;;;11.17;;
54993;SDS011;40891;47.242;8.648;2022-12-16T05:36:04;21.13;;;10.40;;
54993;SDS011;40891;47.242;8.648;2022-12-16T05:38:48;19.87;;;10.23;;
54993;SDS011;40891;47.242;8.648;2022-12-16T05:41:32;19.17;;;10.67;;
54993;SDS011;40891;47.242;8.648;2022-12-16T05:44:16;21.77;;;11.37;;
54993;SDS011;40891;47.242;8.648;2022-12-16T05:47:00;18.73;;;10.93;;
54993;SDS011;40891;47.242;8.648;2022-12-16T05:49:44;22.83;;;11.73;;
54993;SDS011;40891;47.242;8.648;2022-12-16T05:52:28;24.80;;;11.93;;
54993;SDS011;40891;47.242;8.648;2022-12-16T05:55:12;24.23;;;11.40;;
54993;SDS011;40891;47.242;8.648;2022-12-16T05:57:55;23.53;;;11.57;;
54993;SDS011;40891;47.242;8.648;2022-12-16T06:00:40;23.63;;;11.97;;
54993;SDS011;40891;47.242;8.648;2022-12-16T06:03:23;22.50;;;11.40;;
54993;SDS011;40891;47.242;8.648;2022-12-16T06:06:08;22.17;;;12.17;;
54993;SDS011;40891;47.242;8.648;2022-12-16T06:08:52;20.50;;;11.90;;
54993;SDS011;40891;47.242;8.648;2022-12-16T06:11:36;20.17;;;11.20;;
54993;SDS011;40891;47.242;8.648;2022-12-16T06:14:20;20.23;;;9.73;;
54993;SDS011;40891;47.242;8.648;2022-12-16T06:17:04;18.23;;;9.70;;
54993;SDS011;40891;47.242;8.648;2022-12-16T06:19:47;24.83;;;11.33;;
54993;SDS011;40891;47.242;8.648;2022-12-16T06:22:31;18.87;;;10.30;;
54993;SDS011;40891;47.242;8.648;2022-12-16T06:25:15;20.37;;;10.43;;
54993;SDS011;40891;47.242;8.648;2022-12-16T06:27:59;23.33;;;10.27;;
54993;SDS011;40891;47.242;8.648;2022-12-16T06:30:43;19.97;;;10.87;;
54993;SDS011;40891;47.242;8.648;2022-12-16T06:33:27;19.57;;;9.83;;
54993;SDS011;40891;47.242;8.648;2022-12-16T06:36:11;21.67;;;11.13;;
54993;SDS011;40891;47.242;8.648;2022-12-16T06:38:55;23.50;;;9.67;;
54993;SDS011;40891;47.242;8.648;2022-12-16T06:41:39;18.70;;;11.00;;
54993;SDS011;40891;47.242;8.648;2022-12-16T06:44:23;18.63;;;10.10;;
54993;SDS011;40891;47.242;8.648;2022-12-16T06:47:07;20.10;;;11.10;;
54993;SDS011;40891;47.242;8.648;2022-12-16T06:49:51;21.43;;;11.17;;
54993;SDS011;40891;47.242;8.648;2022-12-16T06:52:35;22.93;;;11.93;;
54993;SDS011;40891;47.242;8.648;2022-12-16T06:55:19;24.10;;;12.43;;
54993;SDS011;40891;47.242;8.648;2022-12-16T06:58:04;23.97;;;12.20;;
54993;SDS011;40891;47.242;8.648;2022-12-16T07:00:48;20.27;;;11.27;;
54993;SDS011;40891;47.242;8.648;2022-12-16T07:03:32;20.17;;;10.97;;
54993;SDS011;40891;47.242;8.648;2022-12-16T07:06:16;21.23;;;10.50;;
54993;SDS011;40891;47.242;8.648;2022-12-16T07:09:00;18.90;;;10.00;;
54993;SDS011;40891;47.242;8.648;2022-12-16T07:11:44;21.43;;;10.53;;
54993;SDS011;40891;47.242;8.648;2022-12-16T07:14:28;19.00;;;11.27;;
54993;SDS011;40891;47.242;8.648;2022-12-16T07:17:11;21.27;;;10.10;;
54993;SDS011;40891;47.242;8.648;2022-12-16T07:19:55;19.80;;;10.97;;
54993;SDS011;40891;47.242;8.648;2022-12-16T07:22:43;18.20;;;9.80;;
54993;SDS011;40891;47.242;8.648;2022-12-16T07:25:27;18.80;;;9.90;;
54993;SDS011;40891;47.242;8.648;2022-12-16T07:28:11;20.10;;;10.40;;
54993;SDS011;40891;47.242;8.648;2022-12-16T07:30:55;17.53;;;9.50;;
54993;SDS011;40891;47.242;8.648;2022-12-16T07:33:39;15.17;;;9.00;;
54993;SDS011;40891;47.242;8.648;2022-12-16T07:36:23;15.87;;;9.07;;
54993;SDS011;40891;47.242;8.648;2022-12-16T07:39:07;27.83;;;12.03;;
54993;SDS011;40891;47.242;8.648;2022-12-16T07:41:51;60.07;;;20.80;;
54993;SDS011;40891;47.242;8.648;2022-12-16T07:44:35;34.07;;;14.07;;
54993;SDS011;40891;47.242;8.648;2022-12-16T07:47:19;45.93;;;18.80;;
54993;SDS011;40891;47.242;8.648;2022-12-16T07:50:03;38.77;;;16.17;;
54993;SDS011;40891;47.242;8.648;2022-12-16T07:52:57;31.93;;;15.00;;
54993;SDS011;40891;47.242;8.648;2022-12-16T07:55:41;22.53;;;12.03;;
54993;SDS011;40891;47.242;8.648;2022-12-16T07:58:26;19.77;;;11.83;;
54993;SDS011;40891;47.242;8.648;2022-12-16T08:01:10;22.93;;;12.57;;
54993;SDS011;40891;47.242;8.648;2022-12-16T08:03:54;22.00;;;11.50;;
54993;SDS011;40891;47.242;8.648;2022-12-16T08:06:38;22.90;;;11.57;;
54993;SDS011;40891;47.242;8.648;2022-12-16T08:09:22;24.23;;;12.27;;
54993;SDS011;40891;47.242;8.648;2022-12-16T08:12:06;22.83;;;11.43;;
54993;SDS011;40891;47.242;8.648;2022-12-16T08:14:50;22.60;;;11.67;;
54993;SDS011;40891;47.242;8.648;2022-12-16T08:17:34;22.10;;;12.23;;
54993;SDS011;40891;47.242;8.648;2022-12-16T08:20:18;24.50;;;12.27;;
54993;SDS011;40891;47.242;8.648;2022-12-16T08:23:02;25.43;;;12.27;;
54993;SDS011;40891;47.242;8.648;2022-12-16T08:25:46;27.53;;;13.07;;
54993;SDS011;40891;47.242;8.648;2022-12-16T08:28:30;25.63;;;11.97;;
54993;SDS011;40891;47.242;8.648;2022-12-16T08:31:14;26.77;;;13.63;;
54993;SDS011;40891;47.242;8.648;2022-12-16T08:33:58;24.97;;;13.27;;
54993;SDS011;40891;47.242;8.648;2022-12-16T08:36:42;24.73;;;13.50;;
54993;SDS011;40891;47.242;8.648;2022-12-16T08:39:26;23.10;;;12.33;;
54993;SDS011;40891;47.242;8.648;2022-12-16T08:42:10;26.57;;;12.27;;
54993;SDS011;40891;47.242;8.648;2022-12-16T08:44:54;28.00;;;14.40;;
54993;SDS011;40891;47.242;8.648;2022-12-16T08:47:38;25.40;;;13.97;;
54993;SDS011;40891;47.242;8.648;2022-12-16T08:50:22;24.90;;;13.37;;
54993;SDS011;40891;47.242;8.648;2022-12-16T08:53:06;30.17;;;13.67;;
54993;SDS011;40891;47.242;8.648;2022-12-16T08:55:50;26.43;;;13.10;;
54993;SDS011;40891;47.242;8.648;2022-12-16T08:58:34;24.63;;;13.23;;
54993;SDS011;40891;47.242;8.648;2022-12-16T09:01:18;27.40;;;13.20;;
54993;SDS011;40891;47.242;8.648;2022-12-16T09:04:02;27.33;;;13.27;;
54993;SDS011;40891;47.242;8.648;2022-12-16T09:06:46;27.90;;;13.40;;
54993;SDS011;40891;47.242;8.648;2022-12-16T09:09:30;25.53;;;12.70;;
54993;SDS011;40891;47.242;8.648;2022-12-16T09:12:14;24.77;;;12.27;;
54993;SDS011;40891;47.242;8.648;2022-12-16T09:14:58;28.47;;;14.83;;
54993;SDS011;40891;47.242;8.648;2022-12-16T09:17:42;24.17;;;13.03;;
54993;SDS011;40891;47.242;8.648;2022-12-16T09:20:25;26.13;;;13.23;;
54993;SDS011;40891;47.242;8.648;2022-12-16T09:23:09;26.07;;;13.33;;
54993;SDS011;40891;47.242;8.648;2022-12-16T09:26:10;37.67;;;18.77;;
54993;SDS011;40891;47.242;8.648;2022-12-16T09:28:54;49.60;;;23.90;;
54993;SDS011;40891;47.242;8.648;2022-12-16T09:31:37;38.93;;;20.10;;
54993;SDS011;40891;47.242;8.648;2022-12-16T09:34:21;39.10;;;17.57;;
54993;SDS011;40891;47.242;8.648;2022-12-16T09:37:13;28.83;;;14.13;;
54993;SDS011;40891;47.242;8.648;2022-12-16T09:39:57;29.97;;;14.50;;
54993;SDS011;40891;47.242;8.648;2022-12-16T09:42:53;29.97;;;15.23;;
54993;SDS011;40891;47.242;8.648;2022-12-16T09:48:58;29.50;;;14.27;;
54993;SDS011;40891;47.242;8.648;2022-12-16T09:52:15;25.33;;;13.13;;
54993;SDS011;40891;47.242;8.648;2022-12-16T09:55:02;25.43;;;12.77;;
54993;SDS011;40891;47.242;8.648;2022-12-16T09:57:58;28.90;;;14.33;;
54993;SDS011;40891;47.242;8.648;2022-12-16T10:00:42;29.07;;;14.40;;
54993;SDS011;40891;47.242;8.648;2022-12-16T10:03:28;32.47;;;15.07;;
54993;SDS011;40891;47.242;8.648;2022-12-16T10:06:29;29.70;;;13.80;;
54993;SDS011;40891;47.242;8.648;2022-12-16T10:22:32;28.17;;;14.27;;
54993;SDS011;40891;47.242;8.648;2022-12-16T10:25:31;29.40;;;15.47;;
54993;SDS011;40891;47.242;8.648;2022-12-16T10:28:36;30.60;;;15.83;;
54993;SDS011;40891;47.242;8.648;2022-12-16T10:31:29;27.00;;;12.90;;
54993;SDS011;40891;47.242;8.648;2022-12-16T10:34:17;31.47;;;15.80;;
54993;SDS011;40891;47.242;8.648;2022-12-16T10:37:03;25.27;;;13.03;;
54993;SDS011;40891;47.242;8.648;2022-12-16T10:39:51;25.13;;;12.83;;
54993;SDS011;40891;47.242;8.648;2022-12-16T10:42:43;31.70;;;14.97;;
54993;SDS011;40891;47.242;8.648;2022-12-16T10:45:49;27.90;;;13.87;;
54993;SDS011;40891;47.242;8.648;2022-12-16T10:48:36;29.83;;;14.57;;
54993;SDS011;40891;47.242;8.648;2022-12-16T10:51:21;29.17;;;14.07;;
54993;SDS011;40891;47.242;8.648;2022-12-16T11:00:14;30.70;;;15.17;;
54993;SDS011;40891;47.242;8.648;2022-12-16T11:03:18;34.00;;;15.47;;
54993;SDS011;40891;47.242;8.648;2022-12-16T11:06:04;47.07;;;16.90;;
54993;SDS011;40891;47.242;8.648;2022-12-16T11:08:49;59.23;;;18.53;;
54993;SDS011;40891;47.242;8.648;2022-12-16T11:11:32;35.50;;;15.50;;
54993;SDS011;40891;47.242;8.648;2022-12-16T11:14:19;35.83;;;16.70;;
54993;SDS011;40891;47.242;8.648;2022-12-16T11:23:12;30.33;;;15.13;;
54993;SDS011;40891;47.242;8.648;2022-12-16T11:26:14;25.97;;;14.03;;
54993;SDS011;40891;47.242;8.648;2022-12-16T11:29:03;32.13;;;15.20;;
54993;SDS011;40891;47.242;8.648;2022-12-16T11:34:43;30.13;;;15.50;;
54993;SDS011;40891;47.242;8.648;2022-12-16T11:37:32;32.13;;;15.57;;
54993;SDS011;40891;47.242;8.648;2022-12-16T11:40:18;30.83;;;15.20;;
54993;SDS011;40891;47.242;8.648;2022-12-16T11:43:02;26.57;;;14.27;;
54993;SDS011;40891;47.242;8.648;2022-12-16T11:45:48;24.00;;;13.30;;
54993;SDS011;40891;47.242;8.648;2022-12-16T11:48:40;28.50;;;14.57;;
54993;SDS011;40891;47.242;8.648;2022-12-16T11:51:27;27.87;;;15.03;;
54993;SDS011;40891;47.242;8.648;2022-12-16T11:54:27;28.93;;;14.90;;
54993;SDS011;40891;47.242;8.648;2022-12-16T11:57:18;27.33;;;13.60;;
54993;SDS011;40891;47.242;8.648;2022-12-16T12:00:05;29.23;;;15.10;;
54993;SDS011;40891;47.242;8.648;2022-12-16T12:02:58;26.20;;;14.00;;
54993;SDS011;40891;47.242;8.648;2022-12-16T12:05:53;26.03;;;14.47;;
54993;SDS011;40891;47.242;8.648;2022-12-16T12:09:00;28.73;;;14.90;;
54993;SDS011;40891;47.242;8.648;2022-12-16T12:12:20;37.53;;;16.30;;
54993;SDS011;40891;47.242;8.648;2022-12-16T12:15:28;30.73;;;14.83;;
54993;SDS011;40891;47.242;8.648;2022-12-16T12:21:26;30.73;;;15.23;;
54993;SDS011;40891;47.242;8.648;2022-12-16T12:24:27;35.27;;;16.13;;
54993;SDS011;40891;47.242;8.648;2022-12-16T12:27:36;34.13;;;17.33;;
54993;SDS011;40891;47.242;8.648;2022-12-16T12:30:27;28.90;;;15.90;;
54993;SDS011;40891;47.242;8.648;2022-12-16T12:36:33;34.03;;;18.30;;
54993;SDS011;40891;47.242;8.648;2022-12-16T12:42:37;31.80;;;15.27;;
54993;SDS011;40891;47.242;8.648;2022-12-16T12:55:41;31.27;;;15.50;;
54993;SDS011;40891;47.242;8.648;2022-12-16T12:58:26;33.47;;;17.83;;
54993;SDS011;40891;47.242;8.648;2022-12-16T13:01:15;32.70;;;17.63;;
54993;SDS011;40891;47.242;8.648;2022-12-16T13:04:11;31.57;;;16.43;;
54993;SDS011;40891;47.242;8.648;2022-12-16T13:06:58;33.00;;;16.60;;
54993;SDS011;40891;47.242;8.648;2022-12-16T13:09:43;35.07;;;17.83;;
54993;SDS011;40891;47.242;8.648;2022-12-16T13:12:30;35.10;;;17.97;;
54993;SDS011;40891;47.242;8.648;2022-12-16T13:18:26;39.50;;;18.50;;
54993;SDS011;40891;47.242;8.648;2022-12-16T13:27:14;37.50;;;19.83;;
54993;SDS011;40891;47.242;8.648;2022-12-16T13:30:19;42.60;;;19.70;;
54993;SDS011;40891;47.242;8.648;2022-12-16T13:33:06;37.87;;;19.87;;
54993;SDS011;40891;47.242;8.648;2022-12-16T13:36:11;39.50;;;19.83;;
54993;SDS011;40891;47.242;8.648;2022-12-16T13:38:58;39.47;;;20.10;;
54993;SDS011;40891;47.242;8.648;2022-12-16T13:54:40;44.90;;;22.37;;
54993;SDS011;40891;47.242;8.648;2022-12-16T13:57:34;40.13;;;20.87;;
54993;SDS011;40891;47.242;8.648;2022-12-16T14:00:22;42.00;;;20.77;;
54993;SDS011;40891;47.242;8.648;2022-12-16T14:03:10;45.57;;;21.17;;
54993;SDS011;40891;47.242;8.648;2022-12-16T14:05:57;44.97;;;22.83;;
54993;SDS011;40891;47.242;8.648;2022-12-16T14:08:44;43.17;;;22.27;;
54993;SDS011;40891;47.242;8.648;2022-12-16T14:11:35;40.60;;;21.93;;
54993;SDS011;40891;47.242;8.648;2022-12-16T14:14:27;46.33;;;22.13;;
54993;SDS011;40891;47.242;8.648;2022-12-16T14:17:19;39.33;;;21.10;;
54993;SDS011;40891;47.242;8.648;2022-12-16T14:23:03;43.83;;;22.40;;
54993;SDS011;40891;47.242;8.648;2022-12-16T14:25:59;37.77;;;21.20;;
54993;SDS011;40891;47.242;8.648;2022-12-16T14:28:46;41.97;;;22.00;;
54993;SDS011;40891;47.242;8.648;2022-12-16T14:31:38;47.73;;;22.40;;
54993;SDS011;40891;47.242;8.648;2022-12-16T14:37:12;34.60;;;17.07;;
54993;SDS011;40891;47.242;8.648;2022-12-16T14:39:57;43.70;;;21.73;;
54993;SDS011;40891;47.242;8.648;2022-12-16T14:42:41;41.67;;;21.20;;
54993;SDS011;40891;47.242;8.648;2022-12-16T14:48:24;50.43;;;22.33;;
54993;SDS011;40891;47.242;8.648;2022-12-16T14:51:28;46.43;;;22.13;;
54993;SDS011;40891;47.242;8.648;2022-12-16T14:57:11;47.17;;;21.73;;
54993;SDS011;40891;47.242;8.648;2022-12-16T15:02:47;39.43;;;20.93;;
54993;SDS011;40891;47.242;8.648;2022-12-16T15:05:34;47.10;;;24.00;;
54993;SDS011;40891;47.242;8.648;2022-12-16T15:08:20;47.17;;;23.37;;
54993;SDS011;40891;47.242;8.648;2022-12-16T15:11:06;46.17;;;22.10;;
54993;SDS011;40891;47.242;8.648;2022-12-16T15:13:53;47.33;;;22.50;;
54993;SDS011;40891;47.242;8.648;2022-12-16T15:16:41;47.93;;;21.80;;
54993;SDS011;40891;47.242;8.648;2022-12-16T15:19:27;48.73;;;23.80;;
54993;SDS011;40891;47.242;8.648;2022-12-16T15:22:20;50.17;;;23.63;;
54993;SDS011;40891;47.242;8.648;2022-12-16T15:25:04;44.93;;;23.07;;
54993;SDS011;40891;47.242;8.648;2022-12-16T15:27:54;54.63;;;22.80;;
54993;SDS011;40891;47.242;8.648;2022-12-16T15:33:25;51.53;;;25.50;;
54993;SDS011;40891;47.242;8.648;2022-12-16T15:36:18;50.57;;;24.50;;
54993;SDS011;40891;47.242;8.648;2022-12-16T15:39:21;48.07;;;23.47;;
54993;SDS011;40891;47.242;8.648;2022-12-16T15:42:20;47.73;;;23.17;;
54993;SDS011;40891;47.242;8.648;2022-12-16T15:45:17;46.97;;;23.13;;
54993;SDS011;40891;47.242;8.648;2022-12-16T15:51:01;49.60;;;23.47;;
54993;SDS011;40891;47.242;8.648;2022-12-16T15:53:45;46.27;;;23.30;;
54993;SDS011;40891;47.242;8.648;2022-12-16T15:56:39;43.33;;;22.73;;
54993;SDS011;40891;47.242;8.648;2022-12-16T15:59:26;52.70;;;26.00;;
54993;SDS011;40891;47.242;8.648;2022-12-16T16:05:08;48.77;;;23.17;;
54993;SDS011;40891;47.242;8.648;2022-12-16T16:07:55;48.73;;;21.97;;
54993;SDS011;40891;47.242;8.648;2022-12-16T16:10:40;45.60;;;22.83;;
54993;SDS011;40891;47.242;8.648;2022-12-16T16:13:24;44.33;;;21.73;;
54993;SDS011;40891;47.242;8.648;2022-12-16T16:16:08;47.77;;;23.43;;
54993;SDS011;40891;47.242;8.648;2022-12-16T16:18:53;48.47;;;23.37;;
54993;SDS011;40891;47.242;8.648;2022-12-16T16:21:37;45.17;;;22.43;;
54993;SDS011;40891;47.242;8.648;2022-12-16T16:24:21;51.77;;;23.20;;
54993;SDS011;40891;47.242;8.648;2022-12-16T16:27:08;51.17;;;22.53;;
54993;SDS011;40891;47.242;8.648;2022-12-16T16:29:55;45.83;;;22.53;;
54993;SDS011;40891;47.242;8.648;2022-12-16T16:32:40;46.23;;;23.43;;
54993;SDS011;40891;47.242;8.648;2022-12-16T16:35:24;49.73;;;23.60;;
54993;SDS011;40891;47.242;8.648;2022-12-16T16:38:11;47.07;;;22.53;;
54993;SDS011;40891;47.242;8.648;2022-12-16T16:40:56;41.13;;;20.93;;
54993;SDS011;40891;47.242;8.648;2022-12-16T16:43:39;42.47;;;21.37;;
54993;SDS011;40891;47.242;8.648;2022-12-16T16:49:24;37.30;;;18.87;;
54993;SDS011;40891;47.242;8.648;2022-12-16T16:52:13;44.10;;;20.83;;
54993;SDS011;40891;47.242;8.648;2022-12-16T16:54:58;40.13;;;20.63;;
54993;SDS011;40891;47.242;8.648;2022-12-16T16:57:42;46.27;;;22.37;;
54993;SDS011;40891;47.242;8.648;2022-12-16T17:00:26;43.23;;;20.23;;
54993;SDS011;40891;47.242;8.648;2022-12-16T17:03:11;42.20;;;20.23;;
54993;SDS011;40891;47.242;8.648;2022-12-16T17:05:55;44.97;;;19.50;;
54993;SDS011;40891;47.242;8.648;2022-12-16T17:08:40;42.37;;;20.47;;
54993;SDS011;40891;47.242;8.648;2022-12-16T17:11:24;43.13;;;20.30;;
54993;SDS011;40891;47.242;8.648;2022-12-16T17:14:12;42.77;;;20.47;;
54993;SDS011;40891;47.242;8.648;2022-12-16T17:16:58;46.23;;;20.90;;
54993;SDS011;40891;47.242;8.648;2022-12-16T17:19:42;41.87;;;20.90;;
54993;SDS011;40891;47.242;8.648;2022-12-16T17:22:26;42.60;;;19.40;;
54993;SDS011;40891;47.242;8.648;2022-12-16T17:25:10;39.83;;;19.27;;
54993;SDS011;40891;47.242;8.648;2022-12-16T17:27:54;39.67;;;18.30;;
54993;SDS011;40891;47.242;8.648;2022-12-16T17:30:38;40.07;;;18.13;;
54993;SDS011;40891;47.242;8.648;2022-12-16T17:33:22;39.03;;;19.33;;
54993;SDS011;40891;47.242;8.648;2022-12-16T17:36:08;35.60;;;15.27;;
54993;SDS011;40891;47.242;8.648;2022-12-16T17:38:54;36.07;;;16.23;;
54993;SDS011;40891;47.242;8.648;2022-12-16T17:41:38;34.97;;;16.60;;
54993;SDS011;40891;47.242;8.648;2022-12-16T17:44:22;37.10;;;16.83;;
54993;SDS011;40891;47.242;8.648;2022-12-16T17:47:06;36.57;;;16.87;;
54993;SDS011;40891;47.242;8.648;2022-12-16T17:49:50;32.23;;;15.13;;
54993;SDS011;40891;47.242;8.648;2022-12-16T17:52:34;36.10;;;17.43;;
54993;SDS011;40891;47.242;8.648;2022-12-16T17:55:18;35.50;;;17.00;;
54993;SDS011;40891;47.242;8.648;2022-12-16T17:58:02;33.27;;;16.80;;
54993;SDS011;40891;47.242;8.648;2022-12-16T18:00:46;32.77;;;16.70;;